createdAt,value
2019-04-05T00:06:05.914Z,12.90
2019-04-05T00:16:11.760Z,13.00
2019-04-05T00:26:17.190Z,12.90
2019-04-05T00:36:22.727Z,12.70
2019-04-05T00:46:28.020Z,12.70
2019-04-05T00:56:33.675Z,12.80
2019-04-05T01:06:39.084Z,12.80
2019-04-05T01:16:44.532Z,12.70
2019-04-05T01:26:50.699Z,12.70
2019-04-05T01:36:56.149Z,12.70
2019-04-05T01:47:01.705Z,12.60
2019-04-05T01:57:07.015Z,12.50
2019-04-05T02:07:12.345Z,12.50
2019-04-05T02:17:17.757Z,12.50
2019-04-05T02:27:23.364Z,12.50
2019-04-05T02:37:28.638Z,12.50
2019-04-05T02:47:34.018Z,12.40
2019-04-05T02:57:40.156Z,12.50
2019-04-05T03:07:45.747Z,12.40
2019-04-05T03:17:51.212Z,12.50
2019-04-05T03:27:56.627Z,12.70
2019-04-05T03:38:02.843Z,12.60
2019-04-05T03:48:08.930Z,12.60
2019-04-05T03:58:14.369Z,12.50
2019-04-05T04:08:23.253Z,12.40
2019-04-05T04:18:27.600Z,12.30
2019-04-05T04:28:33.724Z,12.20
2019-04-05T04:38:39.424Z,12.20
2019-04-05T04:48:45.292Z,12.10
2019-04-05T04:58:50.660Z,12.20
2019-04-05T05:08:56.532Z,12.30
2019-04-05T05:19:02.024Z,12.30
2019-04-05T05:29:07.632Z,12.40
2019-04-05T05:39:13.081Z,12.50
2019-04-05T05:49:18.460Z,12.50
2019-04-05T05:59:24.063Z,12.60
2019-04-05T06:09:29.356Z,12.50
2019-04-05T06:19:34.703Z,12.50
2019-04-05T06:29:40.058Z,12.50
2019-04-05T06:39:45.337Z,12.50
2019-04-05T06:49:50.671Z,12.60
2019-04-05T06:59:55.985Z,12.80
2019-04-05T07:10:01.989Z,12.80
2019-04-05T07:20:07.914Z,12.70
2019-04-05T07:30:13.787Z,12.80
2019-04-05T07:40:19.356Z,12.80
2019-04-05T07:50:24.661Z,13.00
2019-04-05T08:00:50.615Z,13.00
2019-04-05T08:11:15.824Z,13.20
2019-04-05T08:21:38.493Z,13.20
2019-04-05T08:32:13.861Z,13.10
2019-04-05T08:42:26.824Z,13.20
2019-04-05T08:52:50.368Z,13.20
2019-04-05T09:03:14.217Z,13.30
2019-04-05T09:13:37.457Z,13.30
2019-04-05T09:24:00.038Z,13.30
2019-04-05T09:34:23.532Z,13.40
2019-04-05T09:44:46.465Z,13.40
2019-04-05T09:55:09.565Z,13.30
2019-04-05T10:05:32.775Z,13.40
2019-04-05T10:15:55.933Z,13.50
2019-04-05T10:26:19.384Z,13.90
2019-04-05T10:36:42.581Z,14.10
2019-04-05T10:47:05.937Z,14.40
2019-04-05T10:57:28.944Z,14.50
2019-04-05T11:07:52.403Z,14.40
2019-04-05T11:18:15.823Z,14.60
2019-04-05T11:28:39.092Z,14.80
2019-04-05T11:39:05.359Z,14.80
2019-04-05T11:49:30.056Z,14.80
2019-04-05T11:59:53.044Z,15.00
2019-04-05T12:10:18.747Z,15.30
2019-04-05T12:20:49.447Z,15.60
2019-04-05T12:31:06.409Z,15.90
2019-04-05T12:41:29.691Z,15.80
2019-04-05T12:51:53.005Z,16.70
2019-04-05T13:02:20.630Z,16.80
2019-04-05T13:12:42.560Z,17.70
2019-04-05T13:23:06.697Z,19.80
2019-04-05T13:33:30.656Z,20.00
2019-04-05T13:43:54.172Z,20.70
2019-04-05T13:54:17.357Z,20.30
2019-04-05T14:04:40.776Z,21.20
2019-04-05T14:15:03.889Z,21.80
2019-04-05T14:25:29.971Z,22.00
2019-04-05T14:35:52.557Z,21.90
2019-04-05T14:46:15.949Z,23.90
2019-04-05T14:56:39.092Z,24.10
2019-04-05T15:07:02.193Z,23.80
2019-04-05T15:17:24.780Z,24.00
2019-04-05T15:27:51.326Z,23.50
2019-04-05T15:38:12.664Z,24.60
2019-04-05T15:48:36.244Z,23.80
2019-04-05T15:59:01.507Z,22.70
2019-04-05T16:09:25.005Z,21.40
2019-04-05T16:19:48.097Z,20.50
2019-04-05T16:30:11.498Z,19.80
2019-04-05T16:40:34.491Z,19.30
2019-04-05T16:50:57.792Z,18.90
2019-04-05T17:01:26.984Z,18.40
2019-04-05T17:11:45.736Z,18.10
2019-04-05T17:22:09.118Z,17.90
2019-04-05T17:32:32.500Z,17.70
2019-04-05T17:42:55.532Z,17.60
2019-04-05T17:53:18.731Z,17.40
2019-04-05T18:03:41.787Z,17.10
2019-04-05T18:14:04.826Z,16.80
2019-04-05T18:24:28.242Z,16.40
2019-04-05T18:34:50.854Z,16.10
2019-04-05T18:45:13.916Z,15.80
2019-04-05T18:55:36.587Z,15.60
2019-04-05T19:06:00.118Z,15.30
2019-04-05T19:16:23.447Z,15.10
2019-04-05T19:26:47.366Z,14.90
2019-04-05T19:58:00.140Z,14.30
2019-04-05T20:08:23.445Z,14.10
2019-04-05T20:18:46.260Z,13.90
2019-04-05T20:29:09.373Z,13.70
2019-04-05T20:39:32.598Z,13.50
2019-04-05T20:49:55.661Z,13.30
2019-04-05T21:00:18.984Z,13.10
2019-04-05T21:10:42.232Z,13.10
2019-04-05T21:21:05.813Z,13.00
2019-04-05T21:31:28.260Z,12.90
2019-04-05T21:41:51.553Z,12.80
2019-04-05T21:52:15.130Z,12.80
2019-04-05T22:02:38.543Z,12.60
2019-04-05T22:13:04.483Z,12.50
2019-04-05T22:23:28.227Z,12.40
2019-04-05T22:33:52.097Z,12.10
2019-04-05T22:44:15.285Z,12.00
2019-04-05T22:54:38.772Z,11.90
2019-04-05T23:05:02.026Z,11.90
2019-04-05T23:15:25.661Z,11.70
2019-04-05T23:25:49.391Z,11.50
2019-04-05T23:36:12.372Z,11.30
2019-04-05T23:46:35.576Z,10.80
2019-04-05T23:56:58.805Z,10.70
